createdAt,value
2019-01-11T00:02:23.431Z,102155.60
2019-01-11T00:04:52.968Z,102155.70
2019-01-11T00:07:22.398Z,102151.69
2019-01-11T00:09:51.772Z,102156.02
2019-01-11T00:12:21.290Z,102149.72
2019-01-11T00:14:50.694Z,102151.84
2019-01-11T00:17:20.083Z,102147.38
2019-01-11T00:19:49.520Z,102151.20
2019-01-11T00:22:18.915Z,102147.14
2019-01-11T00:24:48.292Z,102137.43
2019-01-11T00:27:17.861Z,102137.95
2019-01-11T00:29:47.273Z,102135.88
2019-01-11T00:32:16.693Z,102126.17
2019-01-11T00:34:46.227Z,102125.16
2019-01-11T00:37:15.608Z,102123.73
2019-01-11T00:39:45.017Z,102127.26
2019-01-11T00:42:14.463Z,102123.56
2019-01-11T00:44:43.944Z,102124.02
2019-01-11T00:47:13.371Z,102123.59
2019-01-11T00:49:42.822Z,102120.56
2019-01-11T00:52:12.215Z,102119.60
2019-01-11T00:54:41.615Z,102119.55
2019-01-11T00:57:11.202Z,102114.03
2019-01-11T00:59:40.532Z,102115.32
2019-01-11T01:02:09.927Z,102112.27
2019-01-11T01:04:39.478Z,102104.53
2019-01-11T01:07:09.081Z,102101.27
2019-01-11T01:09:38.543Z,102100.91
2019-01-11T01:12:08.231Z,102090.84
2019-01-11T01:14:37.662Z,102093.20
2019-01-11T01:17:07.143Z,102089.05
2019-01-11T01:19:36.999Z,102083.16
2019-01-11T01:22:06.530Z,102085.03
2019-01-11T01:24:35.982Z,102078.34
2019-01-11T01:27:05.825Z,102071.75
2019-01-11T01:29:35.236Z,102070.48
2019-01-11T01:32:04.915Z,102065.56
2019-01-11T01:34:34.371Z,102068.26
2019-01-11T01:37:03.902Z,102065.06
2019-01-11T01:39:33.296Z,102060.83
2019-01-11T01:42:02.836Z,102060.39
2019-01-11T01:44:32.229Z,102054.11
2019-01-11T01:47:01.634Z,102051.59
2019-01-11T01:49:31.240Z,102054.94
2019-01-11T01:52:01.020Z,102047.89
2019-01-11T01:54:31.139Z,102047.98
2019-01-11T01:57:01.124Z,102050.16
2019-01-11T01:59:30.998Z,102047.95
2019-01-11T02:02:00.986Z,102044.37
2019-01-11T02:04:31.053Z,102046.33
2019-01-11T02:07:01.015Z,102036.92
2019-01-11T02:09:31.211Z,102041.20
2019-01-11T02:12:01.156Z,102032.83
2019-01-11T02:14:30.998Z,102040.88
2019-01-11T02:17:01.011Z,102026.05
2019-01-11T02:19:33.074Z,102026.58
2019-01-11T02:22:02.316Z,102018.69
2019-01-11T02:24:31.704Z,102010.60
2019-01-11T02:27:01.148Z,102006.51
2019-01-11T02:29:31.024Z,102007.32
2019-01-11T02:32:01.050Z,102006.34
2019-01-11T02:34:31.199Z,102006.27
2019-01-11T02:37:01.028Z,101995.13
2019-01-11T02:39:31.043Z,101994.27
2019-01-11T02:42:01.069Z,101999.38
2019-01-11T02:44:32.631Z,101998.09
2019-01-11T02:47:02.144Z,101985.80
2019-01-11T02:49:39.777Z,101988.34
2019-01-11T02:52:02.799Z,101997.66
2019-01-11T02:54:32.219Z,101992.34
2019-01-11T02:57:01.664Z,101997.25
2019-01-11T02:59:31.074Z,101995.38
2019-01-11T03:02:01.094Z,102003.61
2019-01-11T03:04:31.260Z,101992.48
2019-01-11T03:07:01.101Z,101991.02
2019-01-11T03:09:31.104Z,101986.20
2019-01-11T03:12:01.386Z,101984.73
2019-01-11T03:14:31.594Z,101987.53
2019-01-11T03:17:01.101Z,101989.25
2019-01-11T03:19:31.284Z,101985.54
2019-01-11T03:22:01.214Z,101982.78
2019-01-11T03:24:31.125Z,101977.68
2019-01-11T03:27:01.264Z,101972.47
2019-01-11T03:29:31.115Z,101976.39
2019-01-11T03:32:01.129Z,101962.69
2019-01-11T03:34:32.267Z,101961.92
2019-01-11T03:37:01.649Z,101953.11
2019-01-11T03:39:31.168Z,101949.63
2019-01-11T03:42:13.310Z,101950.23
2019-01-11T03:44:42.724Z,101944.39
2019-01-11T03:47:12.164Z,101944.22
2019-01-11T03:49:41.772Z,101941.22
2019-01-11T03:52:11.161Z,101933.69
2019-01-11T03:54:40.580Z,101929.84
2019-01-11T03:57:10.045Z,101924.15
2019-01-11T03:59:39.490Z,101918.58
2019-01-11T04:02:08.916Z,101915.89
2019-01-11T04:04:38.469Z,101911.81
2019-01-11T04:07:07.914Z,101908.98
2019-01-11T04:09:37.385Z,101905.95
2019-01-11T04:12:06.933Z,101901.67
2019-01-11T04:14:36.335Z,101909.52
2019-01-11T04:17:06.188Z,101909.70
2019-01-11T04:19:35.634Z,101901.53
2019-01-11T04:22:14.947Z,101901.71
2019-01-11T04:25:00.983Z,101894.13
2019-01-11T04:27:31.236Z,101886.30
2019-01-11T04:30:01.530Z,101890.74
2019-01-11T04:32:31.298Z,101878.36
2019-01-11T04:35:01.356Z,101877.87
2019-01-11T04:37:31.268Z,101872.54
2019-01-11T04:40:01.346Z,101870.73
2019-01-11T04:42:31.469Z,101869.09
2019-01-11T04:45:01.313Z,101859.22
2019-01-11T04:47:31.430Z,101859.22
2019-01-11T04:50:01.260Z,101856.83
2019-01-11T04:52:31.346Z,101853.95
2019-01-11T04:55:01.401Z,101854.31
2019-01-11T04:57:31.347Z,101849.91
2019-01-11T05:00:01.294Z,101844.22
2019-01-11T05:02:31.486Z,101853.38
2019-01-11T05:05:01.332Z,101846.09
2019-01-11T05:07:31.333Z,101849.14
2019-01-11T05:10:01.510Z,101849.63
2019-01-11T05:12:31.722Z,101851.05
2019-01-11T05:15:01.326Z,101847.47
2019-01-11T05:17:31.858Z,101841.73
2019-01-11T05:20:01.387Z,101847.52
2019-01-11T05:22:31.405Z,101840.61
2019-01-11T05:25:01.454Z,101837.52
2019-01-11T05:27:31.457Z,101837.47
2019-01-11T05:30:01.370Z,101835.31
2019-01-11T05:32:31.489Z,101831.73
2019-01-11T05:35:01.347Z,101828.59
2019-01-11T05:37:31.387Z,101834.46
2019-01-11T05:40:02.345Z,101830.01
2019-01-11T05:42:31.792Z,101822.83
2019-01-11T05:45:01.402Z,101832.41
2019-01-11T05:47:31.431Z,101826.70
2019-01-11T05:50:01.468Z,101829.53
2019-01-11T05:52:31.480Z,101815.12
2019-01-11T05:55:01.490Z,101802.77
2019-01-11T05:57:31.430Z,101813.98
2019-01-11T06:00:01.540Z,101808.33
2019-01-11T06:02:31.585Z,101802.84
2019-01-11T06:05:04.799Z,101803.67
2019-01-11T06:07:59.323Z,101785.87
2019-01-11T06:10:28.746Z,101790.64
2019-01-11T06:12:58.150Z,101789.02
2019-01-11T06:15:27.678Z,101782.74
2019-01-11T06:17:57.117Z,101775.94
2019-01-11T06:20:30.278Z,101779.31
2019-01-11T06:22:57.991Z,101769.86
2019-01-11T06:25:27.580Z,101769.46
2019-01-11T06:27:57.036Z,101765.20
2019-01-11T06:30:26.569Z,101757.84
2019-01-11T06:32:55.986Z,101761.32
2019-01-11T06:35:25.417Z,101754.61
2019-01-11T06:37:54.872Z,101747.61
2019-01-11T06:40:24.303Z,101750.71
2019-01-11T06:42:53.884Z,101740.80
2019-01-11T06:45:23.355Z,101740.23
2019-01-11T06:47:52.754Z,101744.55
2019-01-11T06:50:22.144Z,101741.81
2019-01-11T06:52:51.622Z,101739.72
2019-01-11T06:55:21.026Z,101747.18
2019-01-11T06:57:50.467Z,101745.69
2019-01-11T07:00:20.146Z,101744.24
2019-01-11T07:02:49.553Z,101742.37
2019-01-11T07:05:19.030Z,101741.65
2019-01-11T07:07:48.728Z,101740.80
2019-01-11T07:10:19.589Z,101737.53
2019-01-11T07:12:49.006Z,101727.48
2019-01-11T07:15:18.864Z,101736.47
2019-01-11T07:17:48.461Z,101722.94
2019-01-11T07:20:17.966Z,101728.25
2019-01-11T07:22:47.515Z,101724.09
2019-01-11T07:25:17.307Z,101724.14
2019-01-11T07:28:01.101Z,101718.69
2019-01-11T07:30:44.215Z,101721.34
2019-01-11T07:33:15.322Z,101725.09
2019-01-11T07:35:51.588Z,101723.23
2019-01-11T07:38:21.019Z,101725.27
2019-01-11T07:40:50.551Z,101728.51
2019-01-11T07:43:20.056Z,101720.94
2019-01-11T07:45:49.489Z,101729.30
2019-01-11T07:48:18.996Z,101722.88
2019-01-11T07:50:49.384Z,101724.71
2019-01-11T07:53:18.974Z,101718.95
2019-01-11T07:55:48.454Z,101717.98
2019-01-11T07:58:17.865Z,101711.16
2019-01-11T08:00:48.452Z,101711.86
2019-01-11T08:03:17.944Z,101715.39
2019-01-11T08:05:47.369Z,101714.30
2019-01-11T08:08:16.776Z,101709.80
2019-01-11T08:10:46.302Z,101706.15
2019-01-11T08:13:15.733Z,101701.41
2019-01-11T08:15:45.161Z,101701.01
2019-01-11T08:18:15.335Z,101693.59
2019-01-11T08:20:44.762Z,101692.98
2019-01-11T08:23:14.153Z,101693.34
2019-01-11T08:25:43.860Z,101689.28
2019-01-11T08:28:13.721Z,101688.19
2019-01-11T08:30:43.160Z,101687.56
2019-01-11T08:33:18.474Z,101688.84
2019-01-11T08:35:44.015Z,101688.62
2019-01-11T08:38:13.637Z,101684.50
2019-01-11T08:40:43.083Z,101680.80
2019-01-11T08:43:12.551Z,101685.38
2019-01-11T08:45:41.968Z,101682.88
2019-01-11T08:48:13.072Z,101685.31
2019-01-11T08:50:42.511Z,101682.59
2019-01-11T08:53:11.990Z,101681.84
2019-01-11T08:55:41.584Z,101683.98
2019-01-11T08:58:11.160Z,101675.95
2019-01-11T09:00:40.657Z,101676.01
2019-01-11T09:03:10.293Z,101676.47
2019-01-11T09:05:39.719Z,101674.31
2019-01-11T09:08:09.192Z,101681.19
2019-01-11T09:10:38.767Z,101678.70
2019-01-11T09:13:08.184Z,101676.27
2019-01-11T09:15:37.605Z,101669.22
2019-01-11T09:18:14.009Z,101670.87
2019-01-11T09:20:44.030Z,101674.92
2019-01-11T09:23:13.636Z,101669.73
2019-01-11T09:25:43.265Z,101675.38
2019-01-11T09:28:12.668Z,101668.29
2019-01-11T09:30:42.067Z,101671.08
2019-01-11T09:33:11.596Z,101668.71
2019-01-11T09:35:41.002Z,101665.40
2019-01-11T09:38:10.703Z,101665.59
2019-01-11T09:40:40.380Z,101663.03
2019-01-11T09:43:09.834Z,101663.48
2019-01-11T09:45:39.227Z,101661.84
2019-01-11T09:48:08.862Z,101669.44
2019-01-11T09:50:38.247Z,101659.39
2019-01-11T09:53:07.716Z,101661.24
2019-01-11T09:55:37.277Z,101655.44
2019-01-11T09:58:06.725Z,101655.72
2019-01-11T10:00:36.321Z,101656.53
2019-01-11T10:03:08.263Z,101657.34
2019-01-11T10:05:37.837Z,101650.61
2019-01-11T10:08:07.737Z,101650.34
2019-01-11T10:10:37.340Z,101659.84
2019-01-11T10:13:06.745Z,101663.27
2019-01-11T10:15:36.324Z,101662.22
2019-01-11T10:18:05.969Z,101659.86
2019-01-11T10:20:35.362Z,101645.52
2019-01-11T10:23:04.769Z,101642.21
2019-01-11T10:25:34.267Z,101629.86
2019-01-11T10:28:03.786Z,101618.49
2019-01-11T10:30:33.159Z,101625.88
2019-01-11T10:33:02.605Z,101625.87
2019-01-11T10:35:31.994Z,101623.57
2019-01-11T10:38:02.017Z,101622.38
2019-01-11T10:40:32.159Z,101623.09
2019-01-11T10:43:01.941Z,101623.09
2019-01-11T10:45:31.991Z,101626.09
2019-01-11T10:48:01.992Z,101621.41
2019-01-11T10:50:31.925Z,101618.70
2019-01-11T10:53:02.000Z,101620.45
2019-01-11T10:55:32.116Z,101619.97
2019-01-11T10:58:01.926Z,101621.32
2019-01-11T11:00:32.120Z,101617.65
2019-01-11T11:03:02.398Z,101618.52
2019-01-11T11:05:31.940Z,101619.72
2019-01-11T11:08:01.972Z,101620.25
2019-01-11T11:10:32.035Z,101614.23
2019-01-11T11:13:02.310Z,101611.78
2019-01-11T11:15:31.943Z,101611.84
2019-01-11T11:18:02.031Z,101609.32
2019-01-11T11:20:32.535Z,101603.94
2019-01-11T11:23:02.021Z,101600.54
2019-01-11T11:25:32.139Z,101600.82
2019-01-11T11:28:02.092Z,101599.59
2019-01-11T11:30:32.045Z,101602.81
2019-01-11T11:33:03.409Z,101600.08
2019-01-11T11:35:33.218Z,101591.76
2019-01-11T11:38:02.692Z,101585.45
2019-01-11T11:40:33.095Z,101575.15
2019-01-11T11:43:02.478Z,101569.53
2019-01-11T11:45:32.334Z,101571.28
2019-01-11T11:48:02.180Z,101565.09
2019-01-11T11:50:32.061Z,101558.85
2019-01-11T11:53:02.431Z,101546.20
2019-01-11T11:55:32.309Z,101548.86
2019-01-11T11:58:02.068Z,101544.39
2019-01-11T12:00:32.131Z,101541.98
2019-01-11T12:03:02.229Z,101537.69
2019-01-11T12:05:32.071Z,101537.48
2019-01-11T12:08:02.057Z,101537.95
2019-01-11T12:10:32.361Z,101534.56
2019-01-11T12:13:02.069Z,101532.50
2019-01-11T12:15:32.237Z,101522.46
2019-01-11T12:18:02.309Z,101515.19
2019-01-11T12:20:34.307Z,101515.19
2019-01-11T12:23:03.915Z,101506.88
2019-01-11T12:25:33.372Z,101511.36
2019-01-11T12:28:02.845Z,101506.69
2019-01-11T12:30:32.224Z,101517.40
2019-01-11T12:33:02.227Z,101502.24
2019-01-11T12:35:32.165Z,101495.73
2019-01-11T12:38:02.183Z,101496.14
2019-01-11T12:40:32.404Z,101491.39
2019-01-11T12:43:02.182Z,101481.30
2019-01-11T12:45:32.205Z,101471.25
2019-01-11T12:48:02.378Z,101469.25
2019-01-11T12:50:32.317Z,101466.09
2019-01-11T12:53:02.205Z,101476.05
2019-01-11T12:55:32.385Z,101474.45
2019-01-11T12:58:02.214Z,101474.61
2019-01-11T13:00:32.541Z,101473.50
2019-01-11T13:03:02.278Z,101472.41
2019-01-11T13:05:32.249Z,101472.96
2019-01-11T13:08:02.233Z,101465.59
2019-01-11T13:10:32.395Z,101463.53
2019-01-11T13:13:02.292Z,101442.33
2019-01-11T13:15:32.263Z,101445.59
2019-01-11T13:18:02.432Z,101442.44
2019-01-11T13:20:32.237Z,101443.50
2019-01-11T13:23:02.269Z,101454.03
2019-01-11T13:25:32.494Z,101467.72
2019-01-11T13:28:02.249Z,101452.58
2019-01-11T13:30:32.260Z,101449.97
2019-01-11T13:33:02.365Z,101453.35
2019-01-11T13:35:32.264Z,101451.76
2019-01-11T13:38:02.354Z,101441.23
2019-01-11T13:40:32.347Z,101440.58
2019-01-11T13:43:02.288Z,101447.84
2019-01-11T13:45:32.500Z,101441.98
2019-01-11T13:48:02.439Z,101449.02
2019-01-11T13:50:34.242Z,101458.52
2019-01-11T13:53:03.914Z,101441.00
2019-01-11T13:55:33.453Z,101450.77
2019-01-11T13:58:03.127Z,101444.98
2019-01-11T14:00:32.655Z,101453.09
2019-01-11T14:03:02.583Z,101458.28
2019-01-11T14:05:32.344Z,101458.41
2019-01-11T14:08:02.450Z,101450.70
2019-01-11T14:10:32.396Z,101450.70
2019-01-11T14:13:02.579Z,101465.80
2019-01-11T14:15:32.371Z,101468.65
2019-01-11T14:18:04.706Z,101468.59
2019-01-11T14:20:34.169Z,101459.36
2019-01-11T14:23:03.696Z,101463.75
2019-01-11T14:25:33.248Z,101456.77
2019-01-11T14:28:02.666Z,101451.90
2019-01-11T14:30:32.396Z,101444.64
2019-01-11T14:33:02.454Z,101456.70
2019-01-11T14:35:32.373Z,101457.28
2019-01-11T14:38:02.403Z,101469.19
2019-01-11T14:40:35.270Z,101469.19
2019-01-11T14:43:04.712Z,101465.94
2019-01-11T14:45:34.124Z,101462.00
2019-01-11T14:48:03.672Z,101472.52
2019-01-11T14:50:33.166Z,101467.92
2019-01-11T14:53:02.604Z,101492.91
2019-01-11T14:55:32.758Z,101484.89
2019-01-11T14:58:02.412Z,101492.80
2019-01-11T15:00:32.406Z,101481.81
2019-01-11T15:03:02.486Z,101486.34
2019-01-11T15:05:32.440Z,101480.81
2019-01-11T15:08:02.457Z,101486.48
2019-01-11T15:10:32.607Z,101503.73
2019-01-11T15:13:02.519Z,101500.03
2019-01-11T15:15:32.479Z,101497.41
2019-01-11T15:18:02.553Z,101492.27
2019-01-11T15:20:32.518Z,101491.14
2019-01-11T15:23:02.471Z,101501.74
2019-01-11T15:25:33.873Z,101497.76
2019-01-11T15:28:03.613Z,101500.88
2019-01-11T15:30:33.014Z,101507.90
2019-01-11T15:33:02.545Z,101506.26
2019-01-11T15:35:32.460Z,101514.90
2019-01-11T15:38:02.461Z,101506.25
2019-01-11T15:40:36.438Z,101514.97
2019-01-11T15:43:03.873Z,101519.02
2019-01-11T15:45:33.305Z,101512.34
2019-01-11T15:48:02.882Z,101519.80
2019-01-11T15:50:58.350Z,101517.66
2019-01-11T15:53:35.842Z,101508.42
2019-01-11T15:56:06.870Z,101512.94
2019-01-11T15:58:36.370Z,101508.77
2019-01-11T16:01:06.083Z,101507.38
2019-01-11T16:03:35.545Z,101512.45
2019-01-11T16:06:23.592Z,101517.55
2019-01-11T16:10:00.047Z,101510.06
2019-01-11T16:13:19.211Z,101502.52
2019-01-11T16:16:14.864Z,101498.98
2019-01-11T16:18:44.375Z,101498.95
2019-01-11T16:21:13.808Z,101496.56
2019-01-11T16:23:43.378Z,101505.17
2019-01-11T16:26:12.937Z,101495.48
2019-01-11T16:28:42.415Z,101505.77
2019-01-11T16:31:11.897Z,101503.11
2019-01-11T16:33:41.458Z,101503.18
2019-01-11T16:36:10.919Z,101507.55
2019-01-11T16:38:40.290Z,101506.50
2019-01-11T16:41:10.251Z,101511.53
2019-01-11T16:43:39.707Z,101509.99
2019-01-11T16:46:09.106Z,101520.27
2019-01-11T16:48:38.687Z,101518.91
2019-01-11T16:51:08.125Z,101516.11
2019-01-11T16:53:37.502Z,101512.30
2019-01-11T16:56:06.956Z,101519.81
2019-01-11T16:58:36.326Z,101517.52
2019-01-11T17:01:05.803Z,101516.68
2019-01-11T17:03:35.242Z,101520.00
2019-01-11T17:06:05.025Z,101522.23
2019-01-11T17:08:34.479Z,101526.28
2019-01-11T17:11:03.934Z,101521.36
2019-01-11T17:13:33.366Z,101523.65
2019-01-11T17:16:02.742Z,101524.25
2019-01-11T17:18:32.886Z,101538.28
2019-01-11T17:21:02.684Z,101530.94
2019-01-11T17:23:32.691Z,101524.99
2019-01-11T17:26:02.895Z,101530.51
2019-01-11T17:28:33.283Z,101524.99
2019-01-11T17:31:03.035Z,101519.89
2019-01-11T17:33:32.860Z,101523.94
2019-01-11T17:36:02.725Z,101516.28
2019-01-11T17:38:32.727Z,101532.80
2019-01-11T17:41:02.801Z,101523.06
2019-01-11T17:43:32.737Z,101531.79
2019-01-11T17:46:03.086Z,101523.01
2019-01-11T17:48:33.025Z,101523.36
2019-01-11T17:51:02.716Z,101530.16
2019-01-11T17:53:32.737Z,101531.79
2019-01-11T17:56:03.040Z,101532.31
2019-01-11T17:58:32.806Z,101535.09
2019-01-11T18:01:02.817Z,101536.65
2019-01-11T18:03:33.028Z,101531.63
2019-01-11T18:06:03.666Z,101530.14
2019-01-11T18:08:33.189Z,101531.27
2019-01-11T18:11:02.937Z,101535.16
2019-01-11T18:13:32.784Z,101532.08
2019-01-11T18:16:02.765Z,101534.13
2019-01-11T18:18:32.968Z,101537.81
2019-01-11T18:21:02.797Z,101537.98
2019-01-11T18:23:32.784Z,101537.98
2019-01-11T18:26:02.926Z,101540.39
2019-01-11T18:28:32.834Z,101532.61
2019-01-11T18:31:02.795Z,101532.08
2019-01-11T18:33:32.981Z,101543.51
2019-01-11T18:36:02.826Z,101546.84
2019-01-11T18:38:32.832Z,101545.78
2019-01-11T18:41:02.886Z,101556.50
2019-01-11T18:43:32.898Z,101553.83
2019-01-11T18:46:02.783Z,101553.77
2019-01-11T18:48:32.928Z,101552.05
2019-01-11T18:51:02.827Z,101558.49
2019-01-11T18:53:32.934Z,101556.93
2019-01-11T18:56:05.587Z,101555.82
2019-01-11T18:58:34.100Z,101562.30
2019-01-11T19:01:03.516Z,101567.08
2019-01-11T19:03:33.067Z,101563.44
2019-01-11T19:06:02.819Z,101572.30
2019-01-11T19:08:33.039Z,101572.70
2019-01-11T19:11:02.908Z,101573.06
2019-01-11T19:13:32.846Z,101575.41
2019-01-11T19:16:02.833Z,101576.74
2019-01-11T19:18:32.876Z,101580.03
2019-01-11T19:21:04.694Z,101576.73
2019-01-11T19:23:34.102Z,101582.77
2019-01-11T19:26:03.598Z,101584.84
2019-01-11T19:28:32.967Z,101590.73
2019-01-11T19:31:02.863Z,101588.74
2019-01-11T19:33:32.923Z,101585.13
2019-01-11T19:36:02.954Z,101583.55
2019-01-11T19:38:32.870Z,101581.30
2019-01-11T19:41:02.997Z,101581.30
2019-01-11T19:43:32.945Z,101587.48
2019-01-11T19:46:02.974Z,101595.80
2019-01-11T19:48:33.039Z,101599.90
2019-01-11T19:51:02.928Z,101597.73
2019-01-11T19:53:32.884Z,101595.68
2019-01-11T19:56:03.022Z,101599.94
2019-01-11T19:58:32.929Z,101592.33
2019-01-11T20:01:03.030Z,101592.33
2019-01-11T20:03:33.014Z,101601.05
2019-01-11T20:06:03.042Z,101600.86
2019-01-11T20:08:32.982Z,101600.86
2019-01-11T20:11:03.196Z,101603.42
2019-01-11T20:13:32.982Z,101602.61
2019-01-11T20:16:02.910Z,101603.52
2019-01-11T20:18:33.009Z,101605.09
2019-01-11T20:21:02.945Z,101609.83
2019-01-11T20:23:36.563Z,101609.91
2019-01-11T20:26:04.807Z,101616.42
2019-01-11T20:28:34.210Z,101614.48
2019-01-11T20:31:03.626Z,101618.33
2019-01-11T20:33:33.170Z,101617.51
2019-01-11T20:36:02.981Z,101630.16
2019-01-11T20:38:33.413Z,101632.03
2019-01-11T20:41:03.080Z,101630.08
2019-01-11T20:43:33.119Z,101640.44
2019-01-11T20:46:03.558Z,101635.45
2019-01-11T20:48:33.156Z,101635.45
2019-01-11T20:51:03.045Z,101636.97
2019-01-11T20:53:33.027Z,101643.30
2019-01-11T20:56:03.167Z,101641.09
2019-01-11T20:58:33.033Z,101642.85
2019-01-11T21:01:03.715Z,101645.50
2019-01-11T21:03:33.255Z,101637.60
2019-01-11T21:06:03.055Z,101642.91
2019-01-11T21:08:33.039Z,101642.66
2019-01-11T21:11:03.158Z,101639.38
2019-01-11T21:13:33.208Z,101643.30
2019-01-11T21:16:03.219Z,101647.95
2019-01-11T21:18:33.127Z,101646.63
2019-01-11T21:21:03.083Z,101650.80
2019-01-11T21:23:33.062Z,101646.20
2019-01-11T21:26:03.177Z,101653.52
2019-01-11T21:28:33.137Z,101647.39
2019-01-11T21:31:03.126Z,101651.70
2019-01-11T21:33:33.263Z,101649.22
2019-01-11T21:36:03.132Z,101649.67
2019-01-11T21:38:33.100Z,101656.05
2019-01-11T21:41:03.162Z,101642.34
2019-01-11T21:43:33.124Z,101648.27
2019-01-11T21:46:03.751Z,101653.59
2019-01-11T21:48:33.314Z,101651.77
2019-01-11T21:51:03.170Z,101640.59
2019-01-11T21:53:33.127Z,101639.49
2019-01-11T21:56:03.219Z,101643.22
2019-01-11T21:58:33.251Z,101644.63
2019-01-11T22:01:03.155Z,101647.89
2019-01-11T22:03:33.256Z,101647.89
2019-01-11T22:06:03.197Z,101650.43
2019-01-11T22:08:33.172Z,101647.16
2019-01-11T22:11:03.333Z,101640.95
2019-01-11T22:13:33.181Z,101641.09
2019-01-11T22:16:03.289Z,101640.51
2019-01-11T22:18:33.509Z,101641.66
2019-01-11T22:21:03.183Z,101640.81
2019-01-11T22:23:33.205Z,101635.78
2019-01-11T22:26:03.364Z,101639.31
2019-01-11T22:28:33.335Z,101642.78
2019-01-11T22:31:03.213Z,101643.91
2019-01-11T22:33:33.276Z,101643.66
2019-01-11T22:36:03.229Z,101640.63
2019-01-11T22:38:33.284Z,101641.97
2019-01-11T22:41:03.579Z,101641.97
2019-01-11T22:43:36.594Z,101641.31
2019-01-11T22:46:06.680Z,101642.08
2019-01-11T22:48:36.264Z,101643.55
2019-01-11T22:51:05.669Z,101643.08
2019-01-11T22:53:35.040Z,101645.43
2019-01-11T22:56:04.803Z,101646.87
2019-01-11T22:58:34.193Z,101642.72
2019-01-11T23:01:41.887Z,101642.57
2019-01-11T23:04:11.298Z,101638.41
2019-01-11T23:07:00.707Z,101639.34
2019-01-11T23:09:38.654Z,101638.11
2019-01-11T23:12:27.388Z,101634.88
2019-01-11T23:14:56.789Z,101636.26
2019-01-11T23:17:59.326Z,101631.66
2019-01-11T23:20:28.760Z,101625.05
2019-01-11T23:22:58.137Z,101627.59
2019-01-11T23:25:27.625Z,101628.61
2019-01-11T23:27:57.021Z,101629.87
2019-01-11T23:30:26.426Z,101631.69
2019-01-11T23:32:55.943Z,101641.47
2019-01-11T23:35:25.373Z,101637.19
2019-01-11T23:37:54.774Z,101636.30
2019-01-11T23:40:24.327Z,101636.63
2019-01-11T23:42:53.729Z,101632.33
2019-01-11T23:45:23.103Z,101633.02
2019-01-11T23:47:52.582Z,101626.32
2019-01-11T23:50:21.946Z,101633.20
2019-01-11T23:52:51.349Z,101635.85
2019-01-11T23:55:20.770Z,101634.83
2019-01-11T23:57:50.156Z,101633.83
